sensor_id;sensor_type;location;lat;lon;timestamp;pressure;altitude;pressure_sealevel;temperature;humidity
16544;BME280;8384;47.996;7.786;2022-10-16T00:01:19;98580.06;;;13.87;100.00
16544;BME280;8384;47.996;7.786;2022-10-16T00:03:45;98652.91;;;14.19;100.00
16544;BME280;8384;47.996;7.786;2022-10-16T00:06:12;98627.78;;;14.31;100.00
16544;BME280;8384;47.996;7.786;2022-10-16T00:08:38;98621.72;;;14.34;100.00
16544;BME280;8384;47.996;7.786;2022-10-16T00:11:06;98616.16;;;14.39;100.00
16544;BME280;8384;47.996;7.786;2022-10-16T00:13:34;98624.88;;;14.47;100.00
16544;BME280;8384;47.996;7.786;2022-10-16T00:16:00;98595.44;;;14.18;100.00
16544;BME280;8384;47.996;7.786;2022-10-16T00:18:27;98629.19;;;14.58;100.00
16544;BME280;8384;47.996;7.786;2022-10-16T00:20:52;98579.50;;;14.20;100.00
16544;BME280;8384;47.996;7.786;2022-10-16T00:23:18;98641.34;;;14.52;100.00
16544;BME280;8384;47.996;7.786;2022-10-16T00:25:43;98577.84;;;14.19;100.00
16544;BME280;8384;47.996;7.786;2022-10-16T00:28:08;98641.69;;;14.45;100.00
16544;BME280;8384;47.996;7.786;2022-10-16T00:30:37;98620.78;;;14.15;100.00
16544;BME280;8384;47.996;7.786;2022-10-16T00:33:03;98633.44;;;14.16;100.00
16544;BME280;8384;47.996;7.786;2022-10-16T00:35:28;98642.44;;;14.21;100.00
16544;BME280;8384;47.996;7.786;2022-10-16T00:37:54;98591.94;;;13.77;100.00
16544;BME280;8384;47.996;7.786;2022-10-16T00:40:19;98644.75;;;14.04;100.00
16544;BME280;8384;47.996;7.786;2022-10-16T00:42:45;98624.38;;;13.75;100.00
16544;BME280;8384;47.996;7.786;2022-10-16T00:45:10;98630.63;;;13.86;100.00
16544;BME280;8384;47.996;7.786;2022-10-16T00:47:40;98595.91;;;13.61;100.00
16544;BME280;8384;47.996;7.786;2022-10-16T00:50:18;98652.56;;;13.91;100.00
16544;BME280;8384;47.996;7.786;2022-10-16T00:52:46;98640.03;;;13.75;100.00
16544;BME280;8384;47.996;7.786;2022-10-16T00:55:12;98601.78;;;13.44;100.00
16544;BME280;8384;47.996;7.786;2022-10-16T00:57:38;98674.94;;;13.69;100.00
16544;BME280;8384;47.996;7.786;2022-10-16T01:00:06;98655.84;;;13.48;100.00
16544;BME280;8384;47.996;7.786;2022-10-16T01:02:42;98650.84;;;13.61;100.00
16544;BME280;8384;47.996;7.786;2022-10-16T01:05:08;98639.09;;;13.50;100.00
16544;BME280;8384;47.996;7.786;2022-10-16T01:12:59;98676.25;;;13.82;100.00
16544;BME280;8384;47.996;7.786;2022-10-16T01:15:49;98679.28;;;13.80;100.00
16544;BME280;8384;47.996;7.786;2022-10-16T01:18:37;98677.66;;;13.74;100.00
16544;BME280;8384;47.996;7.786;2022-10-16T01:21:06;98677.09;;;13.77;100.00
16544;BME280;8384;47.996;7.786;2022-10-16T01:26:34;98676.06;;;13.68;100.00
16544;BME280;8384;47.996;7.786;2022-10-16T01:29:09;98672.53;;;13.57;100.00
16544;BME280;8384;47.996;7.786;2022-10-16T01:31:40;98678.34;;;13.40;100.00
16544;BME280;8384;47.996;7.786;2022-10-16T01:34:18;98662.47;;;13.37;100.00
16544;BME280;8384;47.996;7.786;2022-10-16T01:36:49;98681.31;;;13.59;100.00
16544;BME280;8384;47.996;7.786;2022-10-16T01:39:19;98647.28;;;13.55;100.00
16544;BME280;8384;47.996;7.786;2022-10-16T01:41:49;98628.25;;;13.69;100.00
16544;BME280;8384;47.996;7.786;2022-10-16T01:44:20;98662.84;;;13.75;100.00
16544;BME280;8384;47.996;7.786;2022-10-16T01:46:50;98665.88;;;13.74;100.00
16544;BME280;8384;47.996;7.786;2022-10-16T01:49:17;98622.41;;;13.36;100.00
16544;BME280;8384;47.996;7.786;2022-10-16T01:51:47;98661.75;;;13.71;100.00
16544;BME280;8384;47.996;7.786;2022-10-16T01:54:14;98656.53;;;13.75;100.00
16544;BME280;8384;47.996;7.786;2022-10-16T01:56:45;98654.41;;;13.61;100.00
16544;BME280;8384;47.996;7.786;2022-10-16T01:59:15;98626.81;;;13.32;100.00
16544;BME280;8384;47.996;7.786;2022-10-16T02:01:45;98626.53;;;13.28;100.00
16544;BME280;8384;47.996;7.786;2022-10-16T02:04:29;98652.66;;;13.15;100.00
16544;BME280;8384;47.996;7.786;2022-10-16T02:06:56;98625.81;;;13.07;100.00
16544;BME280;8384;47.996;7.786;2022-10-16T02:09:22;98644.94;;;13.28;100.00
16544;BME280;8384;47.996;7.786;2022-10-16T02:11:47;98667.38;;;13.45;100.00
16544;BME280;8384;47.996;7.786;2022-10-16T02:14:14;98645.47;;;13.35;100.00
16544;BME280;8384;47.996;7.786;2022-10-16T02:16:43;98645.47;;;13.30;100.00
16544;BME280;8384;47.996;7.786;2022-10-16T02:19:09;98654.53;;;13.25;100.00
16544;BME280;8384;47.996;7.786;2022-10-16T02:21:47;98669.63;;;13.33;100.00
16544;BME280;8384;47.996;7.786;2022-10-16T02:24:32;98670.19;;;13.25;100.00
16544;BME280;8384;47.996;7.786;2022-10-16T02:29:40;98647.56;;;12.93;100.00
16544;BME280;8384;47.996;7.786;2022-10-16T02:32:09;98640.66;;;13.01;100.00
16544;BME280;8384;47.996;7.786;2022-10-16T02:34:39;98644.81;;;12.88;100.00
16544;BME280;8384;47.996;7.786;2022-10-16T02:37:06;98644.81;;;12.88;100.00
16544;BME280;8384;47.996;7.786;2022-10-16T02:39:32;98657.38;;;13.04;100.00
16544;BME280;8384;47.996;7.786;2022-10-16T02:41:58;98649.16;;;12.99;100.00
16544;BME280;8384;47.996;7.786;2022-10-16T02:44:23;98672.16;;;13.19;100.00
16544;BME280;8384;47.996;7.786;2022-10-16T02:46:49;98645.28;;;13.05;100.00
16544;BME280;8384;47.996;7.786;2022-10-16T02:49:14;98654.31;;;13.16;100.00
16544;BME280;8384;47.996;7.786;2022-10-16T02:51:39;98664.50;;;13.11;100.00
16544;BME280;8384;47.996;7.786;2022-10-16T02:54:05;98675.22;;;13.07;100.00
16544;BME280;8384;47.996;7.786;2022-10-16T02:56:30;98650.84;;;12.85;100.00
16544;BME280;8384;47.996;7.786;2022-10-16T02:58:56;98664.03;;;12.88;100.00
16544;BME280;8384;47.996;7.786;2022-10-16T03:01:21;98670.59;;;12.97;100.00
16544;BME280;8384;47.996;7.786;2022-10-16T03:03:47;98677.13;;;13.12;100.00
16544;BME280;8384;47.996;7.786;2022-10-16T03:06:12;98676.00;;;13.13;100.00
16544;BME280;8384;47.996;7.786;2022-10-16T03:08:37;98652.72;;;13.00;100.00
16544;BME280;8384;47.996;7.786;2022-10-16T03:11:02;98646.13;;;13.06;100.00
16544;BME280;8384;47.996;7.786;2022-10-16T03:13:28;98677.69;;;12.98;100.00
16544;BME280;8384;47.996;7.786;2022-10-16T03:15:53;98659.22;;;13.25;100.00
16544;BME280;8384;47.996;7.786;2022-10-16T03:18:18;98661.44;;;13.17;100.00
16544;BME280;8384;47.996;7.786;2022-10-16T03:20:44;98679.84;;;13.22;100.00
16544;BME280;8384;47.996;7.786;2022-10-16T03:23:09;98649.66;;;13.17;100.00
16544;BME280;8384;47.996;7.786;2022-10-16T03:25:34;98635.44;;;13.04;100.00
16544;BME280;8384;47.996;7.786;2022-10-16T03:28:00;98658.91;;;13.31;100.00
16544;BME280;8384;47.996;7.786;2022-10-16T03:30:25;98640.31;;;13.23;100.00
16544;BME280;8384;47.996;7.786;2022-10-16T03:32:51;98658.09;;;13.36;100.00
16544;BME280;8384;47.996;7.786;2022-10-16T03:35:19;98666.84;;;13.38;100.00
16544;BME280;8384;47.996;7.786;2022-10-16T03:37:45;98654.31;;;13.16;100.00
16544;BME280;8384;47.996;7.786;2022-10-16T03:40:10;98674.88;;;13.24;100.00
16544;BME280;8384;47.996;7.786;2022-10-16T03:42:36;98661.19;;;13.14;100.00
16544;BME280;8384;47.996;7.786;2022-10-16T03:45:01;98661.75;;;13.05;100.00
16544;BME280;8384;47.996;7.786;2022-10-16T03:47:27;98668.91;;;13.07;100.00
16544;BME280;8384;47.996;7.786;2022-10-16T03:49:52;98678.19;;;13.16;100.00
16544;BME280;8384;47.996;7.786;2022-10-16T03:52:17;98652.41;;;13.17;100.00
16544;BME280;8384;47.996;7.786;2022-10-16T03:54:43;98638.75;;;12.96;100.00
16544;BME280;8384;47.996;7.786;2022-10-16T03:57:08;98679.00;;;13.22;100.00
16544;BME280;8384;47.996;7.786;2022-10-16T03:59:33;98656.88;;;12.87;100.00
16544;BME280;8384;47.996;7.786;2022-10-16T04:01:59;98654.41;;;12.85;100.00
16544;BME280;8384;47.996;7.786;2022-10-16T04:04:24;98667.81;;;13.02;100.00
16544;BME280;8384;47.996;7.786;2022-10-16T04:06:50;98660.13;;;13.04;100.00
16544;BME280;8384;47.996;7.786;2022-10-16T04:09:15;98666.94;;;13.12;100.00
16544;BME280;8384;47.996;7.786;2022-10-16T04:11:40;98675.72;;;13.14;100.00
16544;BME280;8384;47.996;7.786;2022-10-16T04:14:06;98628.59;;;13.02;100.00
16544;BME280;8384;47.996;7.786;2022-10-16T04:16:31;98663.63;;;13.26;100.00
16544;BME280;8384;47.996;7.786;2022-10-16T04:18:56;98673.97;;;13.44;100.00
16544;BME280;8384;47.996;7.786;2022-10-16T04:21:21;98666.56;;;13.40;100.00
16544;BME280;8384;47.996;7.786;2022-10-16T04:23:47;98682.50;;;13.48;100.00
16544;BME280;8384;47.996;7.786;2022-10-16T04:26:12;98656.44;;;13.35;100.00
16544;BME280;8384;47.996;7.786;2022-10-16T04:28:38;98669.78;;;13.57;100.00
16544;BME280;8384;47.996;7.786;2022-10-16T04:31:04;98673.63;;;13.61;100.00
16544;BME280;8384;47.996;7.786;2022-10-16T04:33:29;98688.59;;;13.85;100.00
16544;BME280;8384;47.996;7.786;2022-10-16T04:35:59;98677.34;;;13.81;100.00
16544;BME280;8384;47.996;7.786;2022-10-16T04:38:25;98690.47;;;13.94;100.00
16544;BME280;8384;47.996;7.786;2022-10-16T04:40:50;98675.66;;;13.90;100.00
16544;BME280;8384;47.996;7.786;2022-10-16T04:43:16;98671.78;;;13.91;100.00
16544;BME280;8384;47.996;7.786;2022-10-16T04:45:41;98652.25;;;13.93;100.00
16544;BME280;8384;47.996;7.786;2022-10-16T04:48:06;98662.59;;;14.12;100.00
16544;BME280;8384;47.996;7.786;2022-10-16T04:50:32;98666.50;;;14.35;100.00
16544;BME280;8384;47.996;7.786;2022-10-16T04:52:57;98649.47;;;14.33;100.00
16544;BME280;8384;47.996;7.786;2022-10-16T04:55:22;98674.81;;;14.59;100.00
16544;BME280;8384;47.996;7.786;2022-10-16T04:57:48;98669.72;;;14.47;100.00
16544;BME280;8384;47.996;7.786;2022-10-16T05:00:13;98673.25;;;14.48;100.00
16544;BME280;8384;47.996;7.786;2022-10-16T05:02:39;98696.91;;;14.49;100.00
16544;BME280;8384;47.996;7.786;2022-10-16T05:05:04;98690.41;;;14.39;100.00
16544;BME280;8384;47.996;7.786;2022-10-16T05:07:30;98702.03;;;14.61;100.00
16544;BME280;8384;47.996;7.786;2022-10-16T05:09:55;98700.06;;;14.66;100.00
16544;BME280;8384;47.996;7.786;2022-10-16T05:12:20;98704.63;;;14.47;100.00
16544;BME280;8384;47.996;7.786;2022-10-16T05:14:46;98696.13;;;14.14;100.00
16544;BME280;8384;47.996;7.786;2022-10-16T05:17:11;98705.69;;;14.16;100.00
16544;BME280;8384;47.996;7.786;2022-10-16T05:19:36;98726.63;;;14.12;100.00
16544;BME280;8384;47.996;7.786;2022-10-16T05:22:02;98685.34;;;13.77;100.00
16544;BME280;8384;47.996;7.786;2022-10-16T05:24:27;98715.97;;;14.00;100.00
16544;BME280;8384;47.996;7.786;2022-10-16T05:26:52;98712.63;;;14.08;100.00
16544;BME280;8384;47.996;7.786;2022-10-16T05:29:18;98714.88;;;14.01;100.00
16544;BME280;8384;47.996;7.786;2022-10-16T05:31:43;98719.06;;;13.88;100.00
16544;BME280;8384;47.996;7.786;2022-10-16T05:34:09;98727.06;;;13.90;100.00
16544;BME280;8384;47.996;7.786;2022-10-16T05:36:34;98722.03;;;13.97;100.00
16544;BME280;8384;47.996;7.786;2022-10-16T05:39:00;98720.88;;;14.08;100.00
16544;BME280;8384;47.996;7.786;2022-10-16T05:41:25;98715.09;;;14.05;100.00
16544;BME280;8384;47.996;7.786;2022-10-16T05:43:51;98712.66;;;14.03;100.00
16544;BME280;8384;47.996;7.786;2022-10-16T05:46:18;98716.19;;;14.09;100.00
16544;BME280;8384;47.996;7.786;2022-10-16T05:48:44;98707.16;;;14.03;100.00
16544;BME280;8384;47.996;7.786;2022-10-16T05:51:12;98721.94;;;14.13;100.00
16544;BME280;8384;47.996;7.786;2022-10-16T05:53:38;98691.09;;;13.81;100.00
16544;BME280;8384;47.996;7.786;2022-10-16T05:56:06;98726.41;;;14.03;100.00
16544;BME280;8384;47.996;7.786;2022-10-16T05:58:34;98735.19;;;14.05;100.00
16544;BME280;8384;47.996;7.786;2022-10-16T06:01:06;98712.09;;;14.06;100.00
16544;BME280;8384;47.996;7.786;2022-10-16T06:03:32;98737.53;;;14.28;100.00
16544;BME280;8384;47.996;7.786;2022-10-16T06:05:57;98731.22;;;14.22;100.00
16544;BME280;8384;47.996;7.786;2022-10-16T06:08:23;98737.25;;;14.24;100.00
16544;BME280;8384;47.996;7.786;2022-10-16T06:10:57;98729.66;;;14.10;100.00
16544;BME280;8384;47.996;7.786;2022-10-16T06:13:24;98734.41;;;14.00;100.00
16544;BME280;8384;47.996;7.786;2022-10-16T06:15:50;98751.81;;;13.79;100.00
16544;BME280;8384;47.996;7.786;2022-10-16T06:18:15;98758.44;;;13.68;100.00
16544;BME280;8384;47.996;7.786;2022-10-16T06:20:40;98762.84;;;13.64;100.00
16544;BME280;8384;47.996;7.786;2022-10-16T06:23:05;98750.56;;;13.51;100.00
16544;BME280;8384;47.996;7.786;2022-10-16T06:25:31;98742.84;;;13.53;100.00
16544;BME280;8384;47.996;7.786;2022-10-16T06:27:57;98762.31;;;13.67;100.00
16544;BME280;8384;47.996;7.786;2022-10-16T06:30:22;98785.44;;;13.56;100.00
16544;BME280;8384;47.996;7.786;2022-10-16T06:32:47;98781.03;;;13.60;100.00
16544;BME280;8384;47.996;7.786;2022-10-16T06:35:13;98785.63;;;13.75;100.00
16544;BME280;8384;47.996;7.786;2022-10-16T06:37:38;98786.53;;;13.55;100.00
16544;BME280;8384;47.996;7.786;2022-10-16T06:40:04;98791.47;;;13.53;100.00
16544;BME280;8384;47.996;7.786;2022-10-16T06:42:29;98774.97;;;13.63;100.00
16544;BME280;8384;47.996;7.786;2022-10-16T06:44:54;98805.00;;;13.99;100.00
16544;BME280;8384;47.996;7.786;2022-10-16T06:47:20;98782.31;;;13.78;100.00
16544;BME280;8384;47.996;7.786;2022-10-16T06:49:45;98796.31;;;13.87;100.00
16544;BME280;8384;47.996;7.786;2022-10-16T06:52:10;98782.25;;;13.88;100.00
16544;BME280;8384;47.996;7.786;2022-10-16T06:54:35;98795.09;;;14.08;100.00
16544;BME280;8384;47.996;7.786;2022-10-16T06:57:01;98810.09;;;14.27;100.00
16544;BME280;8384;47.996;7.786;2022-10-16T06:59:27;98803.06;;;14.05;100.00
16544;BME280;8384;47.996;7.786;2022-10-16T07:01:52;98819.25;;;14.12;100.00
16544;BME280;8384;47.996;7.786;2022-10-16T07:04:18;98830.94;;;14.33;100.00
16544;BME280;8384;47.996;7.786;2022-10-16T07:06:43;98819.81;;;14.14;100.00
16544;BME280;8384;47.996;7.786;2022-10-16T07:09:10;98838.50;;;14.12;100.00
16544;BME280;8384;47.996;7.786;2022-10-16T07:11:38;98836.00;;;14.15;100.00
16544;BME280;8384;47.996;7.786;2022-10-16T07:14:03;98833.50;;;14.19;100.00
16544;BME280;8384;47.996;7.786;2022-10-16T07:16:31;98820.13;;;14.02;100.00
16544;BME280;8384;47.996;7.786;2022-10-16T07:18:59;98817.47;;;13.81;100.00
16544;BME280;8384;47.996;7.786;2022-10-16T07:21:26;98837.34;;;14.18;100.00
16544;BME280;8384;47.996;7.786;2022-10-16T07:23:55;98856.34;;;14.14;100.00
16544;BME280;8384;47.996;7.786;2022-10-16T07:26:22;98858.03;;;14.55;100.00
16544;BME280;8384;47.996;7.786;2022-10-16T07:28:47;98864.00;;;14.28;100.00
16544;BME280;8384;47.996;7.786;2022-10-16T07:31:14;98862.59;;;14.30;100.00
16544;BME280;8384;47.996;7.786;2022-10-16T07:33:41;98861.16;;;14.38;100.00
16544;BME280;8384;47.996;7.786;2022-10-16T07:36:10;98851.00;;;14.38;100.00
16544;BME280;8384;47.996;7.786;2022-10-16T07:38:36;98861.56;;;14.61;100.00
16544;BME280;8384;47.996;7.786;2022-10-16T07:41:03;98864.59;;;14.69;100.00
16544;BME280;8384;47.996;7.786;2022-10-16T07:43:29;98875.50;;;14.80;100.00
16544;BME280;8384;47.996;7.786;2022-10-16T07:45:55;98864.53;;;14.75;100.00
16544;BME280;8384;47.996;7.786;2022-10-16T07:48:21;98885.75;;;14.74;100.00
16544;BME280;8384;47.996;7.786;2022-10-16T07:50:47;98879.91;;;14.81;100.00
16544;BME280;8384;47.996;7.786;2022-10-16T07:53:12;98891.81;;;15.11;100.00
16544;BME280;8384;47.996;7.786;2022-10-16T07:55:38;98883.41;;;15.26;100.00
16544;BME280;8384;47.996;7.786;2022-10-16T07:58:03;98881.50;;;15.51;100.00
16544;BME280;8384;47.996;7.786;2022-10-16T08:00:29;98884.00;;;15.53;100.00
16544;BME280;8384;47.996;7.786;2022-10-16T08:02:56;98892.88;;;15.74;100.00
16544;BME280;8384;47.996;7.786;2022-10-16T08:05:25;98896.81;;;15.92;100.00
16544;BME280;8384;47.996;7.786;2022-10-16T08:07:50;98896.66;;;16.08;96.98
16544;BME280;8384;47.996;7.786;2022-10-16T08:10:16;98897.03;;;16.20;97.98
16544;BME280;8384;47.996;7.786;2022-10-16T08:12:42;98883.22;;;16.44;95.70
16544;BME280;8384;47.996;7.786;2022-10-16T08:15:08;98872.94;;;16.50;91.99
16544;BME280;8384;47.996;7.786;2022-10-16T08:17:33;98902.31;;;16.60;90.86
16544;BME280;8384;47.996;7.786;2022-10-16T08:19:59;98878.97;;;16.71;88.83
16544;BME280;8384;47.996;7.786;2022-10-16T08:22:24;98901.22;;;16.99;89.65
16544;BME280;8384;47.996;7.786;2022-10-16T08:24:49;98884.59;;;17.04;87.53
16544;BME280;8384;47.996;7.786;2022-10-16T08:27:14;98903.78;;;17.29;85.98
16544;BME280;8384;47.996;7.786;2022-10-16T08:29:40;98873.91;;;17.31;85.28
16544;BME280;8384;47.996;7.786;2022-10-16T08:32:05;98905.94;;;17.65;82.92
16544;BME280;8384;47.996;7.786;2022-10-16T08:34:31;98901.81;;;17.76;80.86
16544;BME280;8384;47.996;7.786;2022-10-16T08:36:56;98880.81;;;17.61;80.74
16544;BME280;8384;47.996;7.786;2022-10-16T08:39:21;98902.47;;;17.87;80.48
16544;BME280;8384;47.996;7.786;2022-10-16T08:42:12;98898.41;;;17.98;79.91
16544;BME280;8384;47.996;7.786;2022-10-16T08:50:12;98892.25;;;18.16;78.72
16544;BME280;8384;47.996;7.786;2022-10-16T08:52:40;98905.56;;;18.13;77.78
16544;BME280;8384;47.996;7.786;2022-10-16T08:55:23;98896.56;;;18.08;77.81
16544;BME280;8384;47.996;7.786;2022-10-16T08:57:50;98913.25;;;18.31;76.82
16544;BME280;8384;47.996;7.786;2022-10-16T09:00:16;98917.72;;;18.54;76.45
16544;BME280;8384;47.996;7.786;2022-10-16T09:05:57;98920.88;;;18.76;75.25
16544;BME280;8384;47.996;7.786;2022-10-16T09:08:36;98929.94;;;19.04;74.79
16544;BME280;8384;47.996;7.786;2022-10-16T09:14:00;98937.06;;;19.42;72.74
16544;BME280;8384;47.996;7.786;2022-10-16T09:16:39;98937.94;;;19.51;72.69
16544;BME280;8384;47.996;7.786;2022-10-16T09:19:24;98947.94;;;19.61;72.77
16544;BME280;8384;47.996;7.786;2022-10-16T09:21:53;98947.28;;;19.55;71.74
16544;BME280;8384;47.996;7.786;2022-10-16T09:24:21;98954.22;;;19.75;70.97
16544;BME280;8384;47.996;7.786;2022-10-16T09:26:47;98959.13;;;20.01;70.93
16544;BME280;8384;47.996;7.786;2022-10-16T09:29:13;98950.91;;;20.28;69.27
16544;BME280;8384;47.996;7.786;2022-10-16T09:31:39;98943.63;;;20.58;67.24
16544;BME280;8384;47.996;7.786;2022-10-16T09:34:06;98953.53;;;21.08;65.72
16544;BME280;8384;47.996;7.786;2022-10-16T09:36:40;98941.63;;;21.25;64.94
16544;BME280;8384;47.996;7.786;2022-10-16T09:39:09;98945.50;;;21.51;62.28
16544;BME280;8384;47.996;7.786;2022-10-16T09:41:37;98946.13;;;21.74;60.05
16544;BME280;8384;47.996;7.786;2022-10-16T09:44:13;98946.25;;;21.95;60.00
16544;BME280;8384;47.996;7.786;2022-10-16T09:46:41;98940.13;;;22.50;53.97
16544;BME280;8384;47.996;7.786;2022-10-16T09:49:21;98955.22;;;22.40;56.71
16544;BME280;8384;47.996;7.786;2022-10-16T09:51:47;98953.63;;;22.69;55.20
16544;BME280;8384;47.996;7.786;2022-10-16T09:54:16;98955.16;;;22.57;53.40
16544;BME280;8384;47.996;7.786;2022-10-16T09:56:42;98907.94;;;21.92;52.12
16544;BME280;8384;47.996;7.786;2022-10-16T09:59:15;98947.59;;;22.28;51.97
16544;BME280;8384;47.996;7.786;2022-10-16T10:01:47;98955.44;;;22.26;50.33
16544;BME280;8384;47.996;7.786;2022-10-16T10:04:14;98953.69;;;22.21;51.75
16544;BME280;8384;47.996;7.786;2022-10-16T10:06:45;98954.00;;;22.20;51.36
16544;BME280;8384;47.996;7.786;2022-10-16T10:11:55;98954.31;;;22.87;50.68
16544;BME280;8384;47.996;7.786;2022-10-16T10:14:27;98943.81;;;22.62;49.52
16544;BME280;8384;47.996;7.786;2022-10-16T10:17:09;98958.06;;;22.31;49.74
16544;BME280;8384;47.996;7.786;2022-10-16T10:19:58;98957.19;;;22.69;49.24
16544;BME280;8384;47.996;7.786;2022-10-16T10:22:40;98956.69;;;22.76;47.87
16544;BME280;8384;47.996;7.786;2022-10-16T10:33:15;98958.22;;;22.65;43.77
16544;BME280;8384;47.996;7.786;2022-10-16T10:36:02;98951.63;;;22.69;45.52
16544;BME280;8384;47.996;7.786;2022-10-16T10:38:47;98950.31;;;22.97;44.34
16544;BME280;8384;47.996;7.786;2022-10-16T10:41:29;98951.59;;;23.20;44.86
16544;BME280;8384;47.996;7.786;2022-10-16T10:46:57;98928.13;;;23.43;43.54
16544;BME280;8384;47.996;7.786;2022-10-16T10:49:31;98945.19;;;23.20;41.10
16544;BME280;8384;47.996;7.786;2022-10-16T10:55:03;98948.53;;;22.92;43.04
16544;BME280;8384;47.996;7.786;2022-10-16T11:03:27;98951.84;;;22.85;42.89
16544;BME280;8384;47.996;7.786;2022-10-16T11:06:05;98950.84;;;23.11;41.70
16544;BME280;8384;47.996;7.786;2022-10-16T11:08:41;98945.38;;;23.24;43.29
16544;BME280;8384;47.996;7.786;2022-10-16T11:11:23;98952.31;;;23.51;42.04
16544;BME280;8384;47.996;7.786;2022-10-16T11:14:24;98952.28;;;23.39;41.35
16544;BME280;8384;47.996;7.786;2022-10-16T11:19:42;98943.66;;;23.65;41.02
16544;BME280;8384;47.996;7.786;2022-10-16T11:30:30;98920.13;;;24.00;41.66
16544;BME280;8384;47.996;7.786;2022-10-16T11:35:51;98938.78;;;24.33;39.59
16544;BME280;8384;47.996;7.786;2022-10-16T11:40:54;98939.47;;;24.67;41.23
16544;BME280;8384;47.996;7.786;2022-10-16T11:43:35;98938.56;;;24.75;40.39
16544;BME280;8384;47.996;7.786;2022-10-16T11:46:08;98939.19;;;24.97;39.87
16544;BME280;8384;47.996;7.786;2022-10-16T11:48:41;98940.44;;;25.12;42.06
16544;BME280;8384;47.996;7.786;2022-10-16T11:51:16;98903.09;;;24.92;40.01
16544;BME280;8384;47.996;7.786;2022-10-16T11:57:11;98926.06;;;25.26;37.45
16544;BME280;8384;47.996;7.786;2022-10-16T11:59:51;98915.41;;;25.31;37.88
16544;BME280;8384;47.996;7.786;2022-10-16T12:05:19;98931.38;;;25.31;38.85
16544;BME280;8384;47.996;7.786;2022-10-16T12:07:54;98931.53;;;24.81;39.05
16544;BME280;8384;47.996;7.786;2022-10-16T12:10:26;98927.31;;;25.28;39.61
16544;BME280;8384;47.996;7.786;2022-10-16T12:12:52;98905.69;;;25.86;38.43
16544;BME280;8384;47.996;7.786;2022-10-16T12:15:27;98914.09;;;26.34;38.11
16544;BME280;8384;47.996;7.786;2022-10-16T12:17:52;98913.56;;;26.28;37.72
16544;BME280;8384;47.996;7.786;2022-10-16T12:20:32;98922.34;;;25.22;38.08
16544;BME280;8384;47.996;7.786;2022-10-16T12:23:06;98909.75;;;24.87;39.35
16544;BME280;8384;47.996;7.786;2022-10-16T12:25:34;98930.13;;;24.63;38.69
16544;BME280;8384;47.996;7.786;2022-10-16T12:28:03;98900.50;;;24.33;40.13
16544;BME280;8384;47.996;7.786;2022-10-16T12:30:32;98916.13;;;25.00;40.19
16544;BME280;8384;47.996;7.786;2022-10-16T12:33:00;98923.22;;;24.97;39.27
16544;BME280;8384;47.996;7.786;2022-10-16T12:35:29;98905.22;;;24.70;39.22
16544;BME280;8384;47.996;7.786;2022-10-16T12:38:05;98894.47;;;24.97;40.00
16544;BME280;8384;47.996;7.786;2022-10-16T12:40:33;98899.16;;;24.80;40.30
16544;BME280;8384;47.996;7.786;2022-10-16T12:43:11;98891.81;;;25.16;41.63
16544;BME280;8384;47.996;7.786;2022-10-16T12:45:37;98900.41;;;25.52;38.14
16544;BME280;8384;47.996;7.786;2022-10-16T12:48:17;98893.91;;;25.20;40.02
16544;BME280;8384;47.996;7.786;2022-10-16T12:50:43;98881.97;;;25.07;38.45
16544;BME280;8384;47.996;7.786;2022-10-16T12:53:22;98877.09;;;24.91;37.78
16544;BME280;8384;47.996;7.786;2022-10-16T13:01:40;98897.34;;;25.57;36.24
16544;BME280;8384;47.996;7.786;2022-10-16T13:10:02;98890.56;;;24.73;37.63
16544;BME280;8384;47.996;7.786;2022-10-16T13:17:40;98881.94;;;25.64;36.71
16544;BME280;8384;47.996;7.786;2022-10-16T13:20:49;98888.03;;;25.53;36.71
16544;BME280;8384;47.996;7.786;2022-10-16T13:23:28;98879.69;;;25.69;35.98
16544;BME280;8384;47.996;7.786;2022-10-16T13:28:35;98874.09;;;25.85;35.52
16544;BME280;8384;47.996;7.786;2022-10-16T13:31:03;98837.97;;;25.20;36.13
16544;BME280;8384;47.996;7.786;2022-10-16T13:33:36;98881.38;;;25.74;34.88
16544;BME280;8384;47.996;7.786;2022-10-16T13:36:04;98890.41;;;26.47;33.37
16544;BME280;8384;47.996;7.786;2022-10-16T13:38:34;98887.91;;;26.26;34.17
16544;BME280;8384;47.996;7.786;2022-10-16T13:41:13;98880.94;;;25.72;33.32
16544;BME280;8384;47.996;7.786;2022-10-16T13:43:42;98861.78;;;25.58;33.41
16544;BME280;8384;47.996;7.786;2022-10-16T13:46:14;98881.25;;;26.50;33.11
16544;BME280;8384;47.996;7.786;2022-10-16T13:48:40;98892.06;;;26.84;32.95
16544;BME280;8384;47.996;7.786;2022-10-16T13:51:13;98839.94;;;27.03;32.20
16544;BME280;8384;47.996;7.786;2022-10-16T13:53:39;98866.22;;;27.14;30.59
16544;BME280;8384;47.996;7.786;2022-10-16T13:56:09;98871.69;;;26.87;31.66
16544;BME280;8384;47.996;7.786;2022-10-16T13:58:35;98873.22;;;27.04;31.94
16544;BME280;8384;47.996;7.786;2022-10-16T14:01:04;98872.59;;;27.34;31.67
16544;BME280;8384;47.996;7.786;2022-10-16T14:03:30;98889.75;;;27.49;31.95
16544;BME280;8384;47.996;7.786;2022-10-16T14:06:03;98888.28;;;28.02;31.52
16544;BME280;8384;47.996;7.786;2022-10-16T14:08:29;98880.97;;;27.74;32.58
16544;BME280;8384;47.996;7.786;2022-10-16T14:10:57;98896.38;;;27.40;32.10
16544;BME280;8384;47.996;7.786;2022-10-16T14:15:53;98891.13;;;27.59;33.01
16544;BME280;8384;47.996;7.786;2022-10-16T14:18:25;98904.16;;;28.13;31.51
16544;BME280;8384;47.996;7.786;2022-10-16T14:20:51;98891.13;;;28.55;31.47
16544;BME280;8384;47.996;7.786;2022-10-16T14:23:29;98882.53;;;28.71;29.96
16544;BME280;8384;47.996;7.786;2022-10-16T14:28:37;98898.34;;;29.14;28.71
16544;BME280;8384;47.996;7.786;2022-10-16T14:31:24;98889.59;;;28.88;29.56
16544;BME280;8384;47.996;7.786;2022-10-16T14:33:50;98861.75;;;28.53;31.06
16544;BME280;8384;47.996;7.786;2022-10-16T14:36:15;98900.56;;;28.97;30.24
16544;BME280;8384;47.996;7.786;2022-10-16T14:38:58;98900.56;;;28.97;29.49
16544;BME280;8384;47.996;7.786;2022-10-16T14:41:24;98877.88;;;28.83;29.31
16544;BME280;8384;47.996;7.786;2022-10-16T14:44:17;98893.22;;;28.89;28.73
16544;BME280;8384;47.996;7.786;2022-10-16T14:46:43;98890.13;;;28.71;29.50